sensor_id;sensor_type;location;lat;lon;timestamp;P1;durP1;ratioP1;P2;durP2;ratioP2
33491;SDS011;20010;51.488;7.232;2024-02-14T00:00:25;5.47;;;5.07;;
33491;SDS011;20010;51.488;7.232;2024-02-14T00:02:52;5.90;;;5.40;;
33491;SDS011;20010;51.488;7.232;2024-02-14T00:05:19;6.88;;;4.60;;
33491;SDS011;20010;51.488;7.232;2024-02-14T00:07:46;5.75;;;5.22;;
33491;SDS011;20010;51.488;7.232;2024-02-14T00:10:13;6.10;;;5.50;;
33491;SDS011;20010;51.488;7.232;2024-02-14T00:12:39;5.65;;;4.80;;
33491;SDS011;20010;51.488;7.232;2024-02-14T00:15:06;7.45;;;4.88;;
33491;SDS011;20010;51.488;7.232;2024-02-14T00:17:34;8.27;;;5.05;;
33491;SDS011;20010;51.488;7.232;2024-02-14T00:20:02;7.82;;;4.50;;
33491;SDS011;20010;51.488;7.232;2024-02-14T00:22:30;5.22;;;4.82;;
33491;SDS011;20010;51.488;7.232;2024-02-14T00:24:58;5.03;;;4.15;;
33491;SDS011;20010;51.488;7.232;2024-02-14T00:27:26;4.93;;;4.53;;
33491;SDS011;20010;51.488;7.232;2024-02-14T00:29:53;7.95;;;5.05;;
33491;SDS011;20010;51.488;7.232;2024-02-14T00:32:21;4.70;;;4.30;;
33491;SDS011;20010;51.488;7.232;2024-02-14T00:34:48;4.75;;;4.43;;
33491;SDS011;20010;51.488;7.232;2024-02-14T00:37:19;6.60;;;4.78;;
33491;SDS011;20010;51.488;7.232;2024-02-14T00:39:45;4.88;;;4.47;;
33491;SDS011;20010;51.488;7.232;2024-02-14T00:42:15;6.70;;;4.93;;
33491;SDS011;20010;51.488;7.232;2024-02-14T00:44:41;5.07;;;4.57;;
33491;SDS011;20010;51.488;7.232;2024-02-14T00:47:09;6.93;;;5.00;;
33491;SDS011;20010;51.488;7.232;2024-02-14T00:49:36;4.95;;;4.55;;
33491;SDS011;20010;51.488;7.232;2024-02-14T00:52:04;4.90;;;4.38;;
33491;SDS011;20010;51.488;7.232;2024-02-14T00:54:30;5.32;;;4.28;;
33491;SDS011;20010;51.488;7.232;2024-02-14T00:56:57;5.72;;;4.53;;
33491;SDS011;20010;51.488;7.232;2024-02-14T00:59:24;6.43;;;4.50;;
33491;SDS011;20010;51.488;7.232;2024-02-14T01:01:51;5.47;;;4.65;;
33491;SDS011;20010;51.488;7.232;2024-02-14T01:04:18;7.68;;;5.63;;
33491;SDS011;20010;51.488;7.232;2024-02-14T01:06:45;5.18;;;4.38;;
33491;SDS011;20010;51.488;7.232;2024-02-14T01:09:12;5.63;;;4.60;;
33491;SDS011;20010;51.488;7.232;2024-02-14T01:11:39;6.22;;;5.30;;
33491;SDS011;20010;51.488;7.232;2024-02-14T01:14:06;4.75;;;4.35;;
33491;SDS011;20010;51.488;7.232;2024-02-14T01:16:33;5.95;;;4.30;;
33491;SDS011;20010;51.488;7.232;2024-02-14T01:18:59;4.68;;;4.28;;
33491;SDS011;20010;51.488;7.232;2024-02-14T01:21:26;5.57;;;4.72;;
33491;SDS011;20010;51.488;7.232;2024-02-14T01:23:53;7.53;;;4.50;;
33491;SDS011;20010;51.488;7.232;2024-02-14T01:26:21;5.47;;;3.95;;
33491;SDS011;20010;51.488;7.232;2024-02-14T01:28:47;7.40;;;4.03;;
33491;SDS011;20010;51.488;7.232;2024-02-14T01:31:15;4.88;;;4.30;;
33491;SDS011;20010;51.488;7.232;2024-02-14T01:33:42;6.97;;;4.10;;
33491;SDS011;20010;51.488;7.232;2024-02-14T01:36:12;4.68;;;4.13;;
33491;SDS011;20010;51.488;7.232;2024-02-14T01:38:39;4.80;;;3.83;;
33491;SDS011;20010;51.488;7.232;2024-02-14T01:41:05;7.60;;;4.07;;
33491;SDS011;20010;51.488;7.232;2024-02-14T01:43:33;4.55;;;3.92;;
33491;SDS011;20010;51.488;7.232;2024-02-14T01:46:07;8.05;;;4.75;;
33491;SDS011;20010;51.488;7.232;2024-02-14T01:48:34;4.90;;;3.90;;
33491;SDS011;20010;51.488;7.232;2024-02-14T01:51:02;7.15;;;4.75;;
33491;SDS011;20010;51.488;7.232;2024-02-14T01:53:29;4.00;;;3.70;;
33491;SDS011;20010;51.488;7.232;2024-02-14T01:55:57;4.32;;;3.92;;
33491;SDS011;20010;51.488;7.232;2024-02-14T01:58:25;4.88;;;4.38;;
33491;SDS011;20010;51.488;7.232;2024-02-14T02:00:53;5.65;;;4.22;;
33491;SDS011;20010;51.488;7.232;2024-02-14T02:03:23;4.70;;;4.13;;
33491;SDS011;20010;51.488;7.232;2024-02-14T02:05:52;6.28;;;4.20;;
33491;SDS011;20010;51.488;7.232;2024-02-14T02:08:24;4.00;;;3.67;;
33491;SDS011;20010;51.488;7.232;2024-02-14T02:10:51;5.75;;;4.15;;
33491;SDS011;20010;51.488;7.232;2024-02-14T02:13:18;5.00;;;4.57;;
33491;SDS011;20010;51.488;7.232;2024-02-14T02:15:47;5.45;;;3.95;;
33491;SDS011;20010;51.488;7.232;2024-02-14T02:18:13;4.88;;;4.13;;
33491;SDS011;20010;51.488;7.232;2024-02-14T02:20:42;4.55;;;4.15;;
33491;SDS011;20010;51.488;7.232;2024-02-14T02:23:12;6.70;;;4.43;;
33491;SDS011;20010;51.488;7.232;2024-02-14T02:25:43;4.63;;;4.22;;
33491;SDS011;20010;51.488;7.232;2024-02-14T02:28:10;4.97;;;3.97;;
33491;SDS011;20010;51.488;7.232;2024-02-14T02:30:42;4.38;;;4.00;;
33491;SDS011;20010;51.488;7.232;2024-02-14T02:33:12;3.70;;;3.45;;
33491;SDS011;20010;51.488;7.232;2024-02-14T02:35:41;6.15;;;4.32;;
33491;SDS011;20010;51.488;7.232;2024-02-14T02:38:08;3.92;;;3.53;;
33491;SDS011;20010;51.488;7.232;2024-02-14T02:40:35;4.55;;;4.15;;
33491;SDS011;20010;51.488;7.232;2024-02-14T02:43:02;4.38;;;3.97;;
33491;SDS011;20010;51.488;7.232;2024-02-14T02:45:29;7.95;;;4.45;;
33491;SDS011;20010;51.488;7.232;2024-02-14T02:47:56;4.85;;;3.80;;
33491;SDS011;20010;51.488;7.232;2024-02-14T02:50:23;4.00;;;3.65;;
33491;SDS011;20010;51.488;7.232;2024-02-14T02:52:50;4.68;;;3.90;;
33491;SDS011;20010;51.488;7.232;2024-02-14T02:55:16;5.50;;;4.38;;
33491;SDS011;20010;51.488;7.232;2024-02-14T02:57:44;3.92;;;3.50;;
33491;SDS011;20010;51.488;7.232;2024-02-14T03:00:12;4.45;;;4.05;;
33491;SDS011;20010;51.488;7.232;2024-02-14T03:02:40;8.38;;;4.22;;
33491;SDS011;20010;51.488;7.232;2024-02-14T03:05:11;6.03;;;4.13;;
33491;SDS011;20010;51.488;7.232;2024-02-14T03:07:44;4.38;;;3.70;;
33491;SDS011;20010;51.488;7.232;2024-02-14T03:10:11;6.25;;;3.70;;
33491;SDS011;20010;51.488;7.232;2024-02-14T03:12:47;5.00;;;4.00;;
33491;SDS011;20010;51.488;7.232;2024-02-14T03:15:14;3.83;;;3.50;;
33491;SDS011;20010;51.488;7.232;2024-02-14T03:17:42;3.55;;;3.25;;
33491;SDS011;20010;51.488;7.232;2024-02-14T03:20:09;4.22;;;3.92;;
33491;SDS011;20010;51.488;7.232;2024-02-14T03:22:43;4.15;;;3.85;;
33491;SDS011;20010;51.488;7.232;2024-02-14T03:25:17;3.85;;;3.63;;
33491;SDS011;20010;51.488;7.232;2024-02-14T03:27:46;4.85;;;4.10;;
33491;SDS011;20010;51.488;7.232;2024-02-14T03:30:20;5.30;;;4.13;;
33491;SDS011;20010;51.488;7.232;2024-02-14T03:32:48;5.07;;;3.97;;
33491;SDS011;20010;51.488;7.232;2024-02-14T03:35:15;4.13;;;3.67;;
33491;SDS011;20010;51.488;7.232;2024-02-14T03:37:45;4.50;;;4.10;;
33491;SDS011;20010;51.488;7.232;2024-02-14T03:40:15;4.28;;;3.88;;
33491;SDS011;20010;51.488;7.232;2024-02-14T03:42:43;4.82;;;4.47;;
33491;SDS011;20010;51.488;7.232;2024-02-14T03:45:10;4.07;;;3.72;;
33491;SDS011;20010;51.488;7.232;2024-02-14T03:47:37;3.53;;;3.33;;
33491;SDS011;20010;51.488;7.232;2024-02-14T03:50:08;3.72;;;3.53;;
33491;SDS011;20010;51.488;7.232;2024-02-14T03:52:35;5.22;;;4.70;;
33491;SDS011;20010;51.488;7.232;2024-02-14T03:55:02;4.68;;;4.35;;
33491;SDS011;20010;51.488;7.232;2024-02-14T03:57:29;7.70;;;4.20;;
33491;SDS011;20010;51.488;7.232;2024-02-14T03:59:59;4.57;;;4.28;;
33491;SDS011;20010;51.488;7.232;2024-02-14T04:02:30;5.50;;;4.93;;
33491;SDS011;20010;51.488;7.232;2024-02-14T04:04:58;5.05;;;4.65;;
33491;SDS011;20010;51.488;7.232;2024-02-14T04:07:26;5.57;;;5.07;;
33491;SDS011;20010;51.488;7.232;2024-02-14T04:09:54;9.00;;;5.45;;
33491;SDS011;20010;51.488;7.232;2024-02-14T04:12:21;5.38;;;4.82;;
33491;SDS011;20010;51.488;7.232;2024-02-14T04:14:47;5.90;;;4.78;;
33491;SDS011;20010;51.488;7.232;2024-02-14T04:17:15;5.93;;;5.00;;
33491;SDS011;20010;51.488;7.232;2024-02-14T04:19:41;5.90;;;5.40;;
33491;SDS011;20010;51.488;7.232;2024-02-14T04:22:08;5.43;;;5.03;;
33491;SDS011;20010;51.488;7.232;2024-02-14T04:24:35;5.68;;;5.18;;
33491;SDS011;20010;51.488;7.232;2024-02-14T04:27:02;6.00;;;5.40;;
33491;SDS011;20010;51.488;7.232;2024-02-14T04:29:32;5.90;;;5.03;;
33491;SDS011;20010;51.488;7.232;2024-02-14T04:32:01;6.57;;;5.28;;
33491;SDS011;20010;51.488;7.232;2024-02-14T04:34:29;5.40;;;5.00;;
33491;SDS011;20010;51.488;7.232;2024-02-14T04:36:57;7.28;;;5.47;;
33491;SDS011;20010;51.488;7.232;2024-02-14T04:39:24;5.32;;;4.90;;
33491;SDS011;20010;51.488;7.232;2024-02-14T04:41:53;6.00;;;5.40;;
33491;SDS011;20010;51.488;7.232;2024-02-14T04:44:28;6.28;;;5.75;;
33491;SDS011;20010;51.488;7.232;2024-02-14T04:46:59;5.57;;;5.07;;
33491;SDS011;20010;51.488;7.232;2024-02-14T04:49:27;6.00;;;5.50;;
33491;SDS011;20010;51.488;7.232;2024-02-14T04:51:55;5.97;;;5.47;;
33491;SDS011;20010;51.488;7.232;2024-02-14T04:54:22;6.57;;;6.00;;
33491;SDS011;20010;51.488;7.232;2024-02-14T04:56:49;5.95;;;5.45;;
33491;SDS011;20010;51.488;7.232;2024-02-14T04:59:21;6.47;;;5.88;;
33491;SDS011;20010;51.488;7.232;2024-02-14T05:01:48;6.28;;;5.70;;
33491;SDS011;20010;51.488;7.232;2024-02-14T05:04:16;5.82;;;5.38;;
33491;SDS011;20010;51.488;7.232;2024-02-14T05:06:43;6.65;;;5.85;;
33491;SDS011;20010;51.488;7.232;2024-02-14T05:09:10;5.97;;;5.38;;
33491;SDS011;20010;51.488;7.232;2024-02-14T05:11:37;6.47;;;5.88;;
33491;SDS011;20010;51.488;7.232;2024-02-14T05:14:04;6.05;;;5.55;;
33491;SDS011;20010;51.488;7.232;2024-02-14T05:16:31;5.95;;;5.03;;
33491;SDS011;20010;51.488;7.232;2024-02-14T05:18:57;5.50;;;5.00;;
33491;SDS011;20010;51.488;7.232;2024-02-14T05:21:24;7.18;;;5.50;;
33491;SDS011;20010;51.488;7.232;2024-02-14T05:23:51;6.53;;;5.22;;
33491;SDS011;20010;51.488;7.232;2024-02-14T05:26:21;5.30;;;4.90;;
33491;SDS011;20010;51.488;7.232;2024-02-14T05:28:48;4.82;;;4.43;;
33491;SDS011;20010;51.488;7.232;2024-02-14T05:31:15;5.50;;;4.90;;
33491;SDS011;20010;51.488;7.232;2024-02-14T05:33:43;4.72;;;4.32;;
33491;SDS011;20010;51.488;7.232;2024-02-14T05:36:10;5.90;;;5.40;;
33491;SDS011;20010;51.488;7.232;2024-02-14T05:38:37;6.07;;;5.53;;
33491;SDS011;20010;51.488;7.232;2024-02-14T05:41:03;5.88;;;5.45;;
33491;SDS011;20010;51.488;7.232;2024-02-14T05:43:31;6.00;;;5.50;;
33491;SDS011;20010;51.488;7.232;2024-02-14T05:45:59;6.78;;;5.47;;
33491;SDS011;20010;51.488;7.232;2024-02-14T05:48:26;5.47;;;5.03;;
33491;SDS011;20010;51.488;7.232;2024-02-14T05:50:53;6.70;;;5.68;;
33491;SDS011;20010;51.488;7.232;2024-02-14T05:53:20;6.30;;;5.20;;
33491;SDS011;20010;51.488;7.232;2024-02-14T05:55:48;5.60;;;5.10;;
33491;SDS011;20010;51.488;7.232;2024-02-14T05:58:15;7.03;;;6.13;;
33491;SDS011;20010;51.488;7.232;2024-02-14T06:00:42;6.25;;;5.75;;
33491;SDS011;20010;51.488;7.232;2024-02-14T06:03:09;6.97;;;5.88;;
33491;SDS011;20010;51.488;7.232;2024-02-14T06:05:36;7.18;;;6.47;;
33491;SDS011;20010;51.488;7.232;2024-02-14T06:08:02;7.25;;;6.53;;
33491;SDS011;20010;51.488;7.232;2024-02-14T06:10:30;6.65;;;6.07;;
33491;SDS011;20010;51.488;7.232;2024-02-14T06:12:56;8.40;;;6.78;;
33491;SDS011;20010;51.488;7.232;2024-02-14T06:15:23;7.25;;;6.55;;
33491;SDS011;20010;51.488;7.232;2024-02-14T06:17:50;8.70;;;6.53;;
33491;SDS011;20010;51.488;7.232;2024-02-14T06:20:18;6.63;;;6.03;;
33491;SDS011;20010;51.488;7.232;2024-02-14T06:22:45;7.78;;;6.55;;
33491;SDS011;20010;51.488;7.232;2024-02-14T06:25:26;10.93;;;6.40;;
33491;SDS011;20010;51.488;7.232;2024-02-14T06:27:53;7.28;;;6.57;;
33491;SDS011;20010;51.488;7.232;2024-02-14T06:30:23;7.93;;;6.57;;
33491;SDS011;20010;51.488;7.232;2024-02-14T06:32:52;7.20;;;6.38;;
33491;SDS011;20010;51.488;7.232;2024-02-14T06:35:19;6.68;;;6.18;;
33491;SDS011;20010;51.488;7.232;2024-02-14T06:37:48;7.72;;;7.07;;
33491;SDS011;20010;51.488;7.232;2024-02-14T06:42:56;7.82;;;7.13;;
33491;SDS011;20010;51.488;7.232;2024-02-14T06:45:25;7.85;;;6.60;;
33491;SDS011;20010;51.488;7.232;2024-02-14T06:47:56;6.90;;;5.85;;
33491;SDS011;20010;51.488;7.232;2024-02-14T06:50:23;8.38;;;7.32;;
33491;SDS011;20010;51.488;7.232;2024-02-14T06:52:53;9.02;;;8.13;;
33491;SDS011;20010;51.488;7.232;2024-02-14T06:55:20;9.52;;;8.57;;
33491;SDS011;20010;51.488;7.232;2024-02-14T06:57:46;10.30;;;8.05;;
33491;SDS011;20010;51.488;7.232;2024-02-14T07:00:13;7.30;;;6.60;;
33491;SDS011;20010;51.488;7.232;2024-02-14T07:02:40;9.68;;;7.82;;
33491;SDS011;20010;51.488;7.232;2024-02-14T07:05:10;7.38;;;6.68;;
33491;SDS011;20010;51.488;7.232;2024-02-14T07:07:41;8.38;;;7.57;;
33491;SDS011;20010;51.488;7.232;2024-02-14T07:10:08;7.32;;;6.72;;
33491;SDS011;20010;51.488;7.232;2024-02-14T07:12:35;8.68;;;7.88;;
33491;SDS011;20010;51.488;7.232;2024-02-14T07:15:05;7.32;;;6.63;;
33491;SDS011;20010;51.488;7.232;2024-02-14T07:17:33;8.63;;;7.53;;
33491;SDS011;20010;51.488;7.232;2024-02-14T07:20:01;7.15;;;6.55;;
33491;SDS011;20010;51.488;7.232;2024-02-14T07:22:28;8.63;;;7.65;;
33491;SDS011;20010;51.488;7.232;2024-02-14T07:24:57;8.25;;;7.45;;
33491;SDS011;20010;51.488;7.232;2024-02-14T07:27:23;7.88;;;7.13;;
33491;SDS011;20010;51.488;7.232;2024-02-14T07:29:50;9.95;;;7.97;;
33491;SDS011;20010;51.488;7.232;2024-02-14T07:32:18;7.53;;;6.93;;
33491;SDS011;20010;51.488;7.232;2024-02-14T07:34:45;8.20;;;7.32;;
33491;SDS011;20010;51.488;7.232;2024-02-14T07:37:12;7.00;;;6.38;;
33491;SDS011;20010;51.488;7.232;2024-02-14T07:39:44;8.23;;;7.35;;
33491;SDS011;20010;51.488;7.232;2024-02-14T07:42:13;6.47;;;5.88;;
33491;SDS011;20010;51.488;7.232;2024-02-14T07:44:41;8.30;;;7.45;;
33491;SDS011;20010;51.488;7.232;2024-02-14T07:47:08;7.88;;;6.00;;
33491;SDS011;20010;51.488;7.232;2024-02-14T07:49:34;7.82;;;6.95;;
33491;SDS011;20010;51.488;7.232;2024-02-14T07:52:02;6.18;;;5.60;;
33491;SDS011;20010;51.488;7.232;2024-02-14T07:54:29;7.50;;;6.53;;
33491;SDS011;20010;51.488;7.232;2024-02-14T07:56:56;6.15;;;5.45;;
33491;SDS011;20010;51.488;7.232;2024-02-14T07:59:23;7.57;;;6.57;;
33491;SDS011;20010;51.488;7.232;2024-02-14T08:01:49;7.65;;;6.95;;
33491;SDS011;20010;51.488;7.232;2024-02-14T08:04:18;7.30;;;6.60;;
33491;SDS011;20010;51.488;7.232;2024-02-14T08:06:46;7.47;;;6.68;;
33491;SDS011;20010;51.488;7.232;2024-02-14T08:09:13;8.63;;;7.75;;
33491;SDS011;20010;51.488;7.232;2024-02-14T08:11:40;9.15;;;7.65;;
33491;SDS011;20010;51.488;7.232;2024-02-14T08:14:07;7.72;;;7.03;;
33491;SDS011;20010;51.488;7.232;2024-02-14T08:16:34;7.80;;;6.97;;
33491;SDS011;20010;51.488;7.232;2024-02-14T08:19:02;11.98;;;8.82;;
33491;SDS011;20010;51.488;7.232;2024-02-14T08:21:29;10.45;;;9.38;;
33491;SDS011;20010;51.488;7.232;2024-02-14T08:23:58;9.50;;;8.57;;
33491;SDS011;20010;51.488;7.232;2024-02-14T08:26:28;10.43;;;8.40;;
33491;SDS011;20010;51.488;7.232;2024-02-14T08:28:55;13.98;;;10.55;;
33491;SDS011;20010;51.488;7.232;2024-02-14T08:31:22;9.38;;;8.57;;
33491;SDS011;20010;51.488;7.232;2024-02-14T08:33:49;8.40;;;7.65;;
33491;SDS011;20010;51.488;7.232;2024-02-14T08:36:20;10.98;;;8.30;;
33491;SDS011;20010;51.488;7.232;2024-02-14T08:38:47;8.73;;;7.93;;
33491;SDS011;20010;51.488;7.232;2024-02-14T08:41:14;11.15;;;8.23;;
33491;SDS011;20010;51.488;7.232;2024-02-14T08:43:41;8.00;;;7.28;;
33491;SDS011;20010;51.488;7.232;2024-02-14T08:46:13;9.43;;;8.52;;
33491;SDS011;20010;51.488;7.232;2024-02-14T08:48:40;8.27;;;7.57;;
33491;SDS011;20010;51.488;7.232;2024-02-14T08:51:14;7.90;;;7.30;;
33491;SDS011;20010;51.488;7.232;2024-02-14T08:53:42;8.45;;;7.65;;
33491;SDS011;20010;51.488;7.232;2024-02-14T08:56:11;7.47;;;6.78;;
33491;SDS011;20010;51.488;7.232;2024-02-14T08:58:39;8.55;;;7.65;;
33491;SDS011;20010;51.488;7.232;2024-02-14T09:01:06;7.75;;;7.00;;
33491;SDS011;20010;51.488;7.232;2024-02-14T09:03:44;9.48;;;7.97;;
33491;SDS011;20010;51.488;7.232;2024-02-14T09:06:16;7.63;;;6.93;;
33491;SDS011;20010;51.488;7.232;2024-02-14T09:08:45;8.20;;;6.70;;
33491;SDS011;20010;51.488;7.232;2024-02-14T09:11:12;6.00;;;5.47;;
33491;SDS011;20010;51.488;7.232;2024-02-14T09:13:39;7.15;;;6.55;;
33491;SDS011;20010;51.488;7.232;2024-02-14T09:16:12;6.28;;;5.68;;
33491;SDS011;20010;51.488;7.232;2024-02-14T09:18:41;6.60;;;5.88;;
33491;SDS011;20010;51.488;7.232;2024-02-14T09:21:10;5.97;;;5.40;;
33491;SDS011;20010;51.488;7.232;2024-02-14T09:23:39;6.95;;;6.35;;
33491;SDS011;20010;51.488;7.232;2024-02-14T09:26:07;9.27;;;6.53;;
33491;SDS011;20010;51.488;7.232;2024-02-14T09:28:34;5.38;;;4.97;;
33491;SDS011;20010;51.488;7.232;2024-02-14T09:31:01;6.18;;;5.57;;
33491;SDS011;20010;51.488;7.232;2024-02-14T09:33:30;5.95;;;5.38;;
33491;SDS011;20010;51.488;7.232;2024-02-14T09:35:57;6.22;;;5.38;;
33491;SDS011;20010;51.488;7.232;2024-02-14T09:38:24;6.22;;;4.93;;
33491;SDS011;20010;51.488;7.232;2024-02-14T09:40:53;5.45;;;4.95;;
33491;SDS011;20010;51.488;7.232;2024-02-14T09:43:37;9.52;;;5.88;;
33491;SDS011;20010;51.488;7.232;2024-02-14T09:46:09;6.47;;;5.38;;
33491;SDS011;20010;51.488;7.232;2024-02-14T09:48:38;6.22;;;5.63;;
33491;SDS011;20010;51.488;7.232;2024-02-14T09:51:08;8.38;;;6.25;;
33491;SDS011;20010;51.488;7.232;2024-02-14T09:53:35;10.77;;;7.82;;
33491;SDS011;20010;51.488;7.232;2024-02-14T09:56:02;7.38;;;6.68;;
33491;SDS011;20010;51.488;7.232;2024-02-14T09:58:30;10.30;;;8.90;;
33491;SDS011;20010;51.488;7.232;2024-02-14T10:00:58;8.07;;;7.38;;
33491;SDS011;20010;51.488;7.232;2024-02-14T10:03:25;9.40;;;8.50;;
33491;SDS011;20010;51.488;7.232;2024-02-14T10:05:52;8.27;;;7.63;;
33491;SDS011;20010;51.488;7.232;2024-02-14T10:08:19;12.45;;;8.48;;
33491;SDS011;20010;51.488;7.232;2024-02-14T10:10:49;9.27;;;7.40;;
33491;SDS011;20010;51.488;7.232;2024-02-14T10:13:19;9.50;;;7.70;;
33491;SDS011;20010;51.488;7.232;2024-02-14T10:15:48;8.35;;;7.53;;
33491;SDS011;20010;51.488;7.232;2024-02-14T10:18:15;12.05;;;7.22;;
33491;SDS011;20010;51.488;7.232;2024-02-14T10:20:55;8.18;;;7.38;;
33491;SDS011;20010;51.488;7.232;2024-02-14T10:23:23;7.45;;;6.85;;
33491;SDS011;20010;51.488;7.232;2024-02-14T10:25:50;8.05;;;7.20;;
33491;SDS011;20010;51.488;7.232;2024-02-14T10:28:20;8.35;;;6.97;;
33491;SDS011;20010;51.488;7.232;2024-02-14T10:30:58;7.95;;;6.53;;
33491;SDS011;20010;51.488;7.232;2024-02-14T10:33:29;7.10;;;6.38;;
33491;SDS011;20010;51.488;7.232;2024-02-14T10:35:57;6.53;;;5.63;;
33491;SDS011;20010;51.488;7.232;2024-02-14T10:38:30;7.15;;;5.25;;
33491;SDS011;20010;51.488;7.232;2024-02-14T10:40:59;5.30;;;4.78;;
33491;SDS011;20010;51.488;7.232;2024-02-14T10:43:27;5.03;;;4.60;;
33491;SDS011;20010;51.488;7.232;2024-02-14T10:45:54;8.85;;;5.05;;
33491;SDS011;20010;51.488;7.232;2024-02-14T10:48:22;6.00;;;5.05;;
33491;SDS011;20010;51.488;7.232;2024-02-14T10:50:53;5.75;;;4.70;;
33491;SDS011;20010;51.488;7.232;2024-02-14T10:53:21;6.97;;;5.13;;
33491;SDS011;20010;51.488;7.232;2024-02-14T10:55:49;6.20;;;4.60;;
33491;SDS011;20010;51.488;7.232;2024-02-14T10:58:19;5.50;;;5.00;;
33491;SDS011;20010;51.488;7.232;2024-02-14T11:00:46;5.25;;;4.28;;
33491;SDS011;20010;51.488;7.232;2024-02-14T11:03:13;6.35;;;4.90;;
33491;SDS011;20010;51.488;7.232;2024-02-14T11:05:48;4.88;;;4.40;;
33491;SDS011;20010;51.488;7.232;2024-02-14T11:08:19;4.88;;;4.45;;
33491;SDS011;20010;51.488;7.232;2024-02-14T11:10:54;5.85;;;4.20;;
33491;SDS011;20010;51.488;7.232;2024-02-14T11:13:30;4.82;;;4.43;;
33491;SDS011;20010;51.488;7.232;2024-02-14T11:16:01;5.07;;;4.55;;
33491;SDS011;20010;51.488;7.232;2024-02-14T11:18:30;4.90;;;4.45;;
33491;SDS011;20010;51.488;7.232;2024-02-14T11:21:02;5.65;;;4.43;;
33491;SDS011;20010;51.488;7.232;2024-02-14T11:23:30;4.03;;;3.63;;
33491;SDS011;20010;51.488;7.232;2024-02-14T11:26:01;5.53;;;4.30;;
33491;SDS011;20010;51.488;7.232;2024-02-14T11:28:39;4.65;;;4.13;;
33491;SDS011;20010;51.488;7.232;2024-02-14T11:31:07;4.40;;;4.10;;
33491;SDS011;20010;51.488;7.232;2024-02-14T11:33:33;4.55;;;4.15;;
33491;SDS011;20010;51.488;7.232;2024-02-14T11:36:07;4.90;;;3.92;;
33491;SDS011;20010;51.488;7.232;2024-02-14T11:38:37;4.07;;;3.78;;
33491;SDS011;20010;51.488;7.232;2024-02-14T11:41:07;5.88;;;4.63;;
33491;SDS011;20010;51.488;7.232;2024-02-14T11:45:58;5.95;;;5.13;;
33491;SDS011;20010;51.488;7.232;2024-02-14T11:48:25;5.85;;;5.45;;
33491;SDS011;20010;51.488;7.232;2024-02-14T11:50:53;5.68;;;3.90;;
33491;SDS011;20010;51.488;7.232;2024-02-14T11:53:21;6.00;;;4.50;;
33491;SDS011;20010;51.488;7.232;2024-02-14T11:55:48;5.65;;;4.43;;
33491;SDS011;20010;51.488;7.232;2024-02-14T11:58:16;5.28;;;4.65;;
33491;SDS011;20010;51.488;7.232;2024-02-14T12:00:44;7.50;;;5.40;;
33491;SDS011;20010;51.488;7.232;2024-02-14T12:03:20;5.50;;;4.63;;
33491;SDS011;20010;51.488;7.232;2024-02-14T12:05:52;6.45;;;5.18;;
33491;SDS011;20010;51.488;7.232;2024-02-14T12:08:20;6.22;;;5.63;;
33491;SDS011;20010;51.488;7.232;2024-02-14T12:10:49;6.22;;;5.72;;
33491;SDS011;20010;51.488;7.232;2024-02-14T12:13:20;6.30;;;5.28;;
33491;SDS011;20010;51.488;7.232;2024-02-14T12:18:15;9.32;;;5.93;;
33491;SDS011;20010;51.488;7.232;2024-02-14T12:20:45;8.38;;;6.82;;
33491;SDS011;20010;51.488;7.232;2024-02-14T12:23:16;8.20;;;7.15;;
33491;SDS011;20010;51.488;7.232;2024-02-14T12:25:47;7.45;;;6.65;;
33491;SDS011;20010;51.488;7.232;2024-02-14T12:28:16;8.60;;;7.10;;
33491;SDS011;20010;51.488;7.232;2024-02-14T12:33:17;7.75;;;6.90;;
33491;SDS011;20010;51.488;7.232;2024-02-14T12:35:45;10.13;;;7.88;;
33491;SDS011;20010;51.488;7.232;2024-02-14T12:38:14;7.90;;;7.15;;
33491;SDS011;20010;51.488;7.232;2024-02-14T12:40:42;8.52;;;7.65;;
33491;SDS011;20010;51.488;7.232;2024-02-14T12:43:09;8.73;;;7.97;;
33491;SDS011;20010;51.488;7.232;2024-02-14T12:45:37;10.68;;;7.65;;
33491;SDS011;20010;51.488;7.232;2024-02-14T12:48:08;7.68;;;6.88;;
33491;SDS011;20010;51.488;7.232;2024-02-14T12:50:38;9.63;;;8.00;;
33491;SDS011;20010;51.488;7.232;2024-02-14T12:53:06;9.35;;;8.32;;
33491;SDS011;20010;51.488;7.232;2024-02-14T12:55:34;9.13;;;8.23;;
33491;SDS011;20010;51.488;7.232;2024-02-14T12:58:01;9.55;;;7.85;;
33491;SDS011;20010;51.488;7.232;2024-02-14T13:00:30;11.07;;;9.48;;
33491;SDS011;20010;51.488;7.232;2024-02-14T13:02:59;13.23;;;9.35;;
33491;SDS011;20010;51.488;7.232;2024-02-14T13:05:27;11.77;;;8.02;;
33491;SDS011;20010;51.488;7.232;2024-02-14T13:07:55;12.25;;;8.85;;
33491;SDS011;20010;51.488;7.232;2024-02-14T13:10:22;8.80;;;8.00;;
33491;SDS011;20010;51.488;7.232;2024-02-14T13:12:51;10.70;;;9.77;;
33491;SDS011;20010;51.488;7.232;2024-02-14T13:15:22;9.27;;;8.35;;
33491;SDS011;20010;51.488;7.232;2024-02-14T13:17:48;9.75;;;8.48;;
33491;SDS011;20010;51.488;7.232;2024-02-14T13:20:16;10.70;;;9.30;;
33491;SDS011;20010;51.488;7.232;2024-02-14T13:22:44;10.63;;;9.52;;
33491;SDS011;20010;51.488;7.232;2024-02-14T13:25:10;9.02;;;8.25;;
33491;SDS011;20010;51.488;7.232;2024-02-14T13:27:41;10.38;;;8.88;;
33491;SDS011;20010;51.488;7.232;2024-02-14T13:30:07;9.10;;;8.20;;
33491;SDS011;20010;51.488;7.232;2024-02-14T13:32:36;7.70;;;7.10;;
33491;SDS011;20010;51.488;7.232;2024-02-14T13:35:04;8.40;;;7.68;;
33491;SDS011;20010;51.488;7.232;2024-02-14T13:37:36;8.30;;;7.60;;
33491;SDS011;20010;51.488;7.232;2024-02-14T13:40:04;7.75;;;6.95;;
33491;SDS011;20010;51.488;7.232;2024-02-14T13:42:36;8.27;;;6.18;;
33491;SDS011;20010;51.488;7.232;2024-02-14T13:45:06;9.73;;;6.43;;
33491;SDS011;20010;51.488;7.232;2024-02-14T13:47:38;6.80;;;6.20;;
33491;SDS011;20010;51.488;7.232;2024-02-14T13:50:12;7.05;;;6.43;;
33491;SDS011;20010;51.488;7.232;2024-02-14T13:52:39;7.18;;;6.30;;
33491;SDS011;20010;51.488;7.232;2024-02-14T13:55:06;7.80;;;6.30;;
33491;SDS011;20010;51.488;7.232;2024-02-14T13:57:36;8.60;;;7.85;;
33491;SDS011;20010;51.488;7.232;2024-02-14T14:00:08;8.35;;;7.57;;
33491;SDS011;20010;51.488;7.232;2024-02-14T14:02:38;9.00;;;6.93;;
33491;SDS011;20010;51.488;7.232;2024-02-14T14:05:09;8.00;;;7.30;;
33491;SDS011;20010;51.488;7.232;2024-02-14T14:07:38;9.95;;;6.93;;
33491;SDS011;20010;51.488;7.232;2024-02-14T14:10:25;8.07;;;6.88;;
33491;SDS011;20010;51.488;7.232;2024-02-14T14:16:06;8.55;;;7.70;;
33491;SDS011;20010;51.488;7.232;2024-02-14T14:18:35;7.95;;;7.15;;
33491;SDS011;20010;51.488;7.232;2024-02-14T14:21:02;9.38;;;7.88;;
33491;SDS011;20010;51.488;7.232;2024-02-14T14:23:35;6.95;;;6.35;;
33491;SDS011;20010;51.488;7.232;2024-02-14T14:26:02;7.30;;;6.55;;
33491;SDS011;20010;51.488;7.232;2024-02-14T14:28:31;7.15;;;6.63;;
33491;SDS011;20010;51.488;7.232;2024-02-14T14:30:58;8.13;;;6.75;;
33491;SDS011;20010;51.488;7.232;2024-02-14T14:33:26;7.20;;;6.50;;
33491;SDS011;20010;51.488;7.232;2024-02-14T14:35:54;8.38;;;7.57;;
33491;SDS011;20010;51.488;7.232;2024-02-14T14:38:22;6.00;;;5.50;;
33491;SDS011;20010;51.488;7.232;2024-02-14T14:40:50;7.22;;;6.63;;
33491;SDS011;20010;51.488;7.232;2024-02-14T14:43:19;6.30;;;5.80;;
33491;SDS011;20010;51.488;7.232;2024-02-14T14:45:47;9.00;;;5.57;;
33491;SDS011;20010;51.488;7.232;2024-02-14T14:48:16;6.93;;;5.13;;
33491;SDS011;20010;51.488;7.232;2024-02-14T14:50:43;6.55;;;5.95;;
33491;SDS011;20010;51.488;7.232;2024-02-14T14:53:10;5.20;;;4.82;;
33491;SDS011;20010;51.488;7.232;2024-02-14T14:55:54;5.70;;;5.30;;
33491;SDS011;20010;51.488;7.232;2024-02-14T14:58:23;5.30;;;4.90;;
33491;SDS011;20010;51.488;7.232;2024-02-14T15:00:53;6.07;;;5.20;;
33491;SDS011;20010;51.488;7.232;2024-02-14T15:03:25;4.70;;;4.30;;
33491;SDS011;20010;51.488;7.232;2024-02-14T15:05:53;5.80;;;5.40;;
33491;SDS011;20010;51.488;7.232;2024-02-14T15:08:20;5.65;;;5.10;;